DAL1228 KIAD-KJFK
Flight info
| Callsign | DAL1228 |
|---|---|
| Flight time | 0h 46m |
| Altitude | 17000 |
| Route | JCOBY4 AGARD DONIL/N0369F170 T315 PANZE V44 CAMRN |
| Aircraft | B738/M-SDE2E3FGHIRWXY/LB1 |
Departure
| Time | 2026-05-06 23:45 |
|---|---|
| Airport | Washington Dulles International Airport (KIAD) |
Arrival
| Time | 2026-05-07 00:32 |
|---|---|
| Airport | John F. Kennedy International Airport (KJFK) |
| Time | Latitude | Longitude | Altitude | Speed | Heading |
|---|---|---|---|---|---|
| 2026-05-06 23:30 | 38.94495 | -77.45413 | 319 ft | 0 kts | 21° |
| 2026-05-06 23:36 | 38.94487 | -77.45418 | 319 ft | 2 kts | 21° |
| 2026-05-06 23:37 | 38.94473 | -77.45424 | 319 ft | 2 kts | 21° |
| 2026-05-06 23:37 | 38.94459 | -77.45431 | 319 ft | 2 kts | 21° |
| 2026-05-06 23:37 | 38.94450 | -77.45435 | 319 ft | 2 kts | 19° |
| 2026-05-06 23:37 | 38.94435 | -77.45435 | 319 ft | 2 kts | 335° |
| 2026-05-06 23:38 | 38.94423 | -77.45423 | 319 ft | 2 kts | 300° |
| 2026-05-06 23:38 | 38.94420 | -77.45409 | 319 ft | 0 kts | 274° |
| 2026-05-06 23:38 | 38.94420 | -77.45400 | 319 ft | 1 kts | 270° |
| 2026-05-06 23:41 | 38.94421 | -77.45464 | 319 ft | 14 kts | 271° |
| 2026-05-06 23:41 | 38.94419 | -77.45575 | 319 ft | 9 kts | 252° |
| 2026-05-06 23:41 | 38.94373 | -77.45613 | 319 ft | 8 kts | 181° |
| 2026-05-06 23:41 | 38.94317 | -77.45612 | 319 ft | 8 kts | 180° |
| 2026-05-06 23:42 | 38.94236 | -77.45613 | 319 ft | 12 kts | 182° |
| 2026-05-06 23:42 | 38.94142 | -77.45615 | 319 ft | 13 kts | 180° |
| 2026-05-06 23:42 | 38.94043 | -77.45615 | 319 ft | 14 kts | 181° |
| 2026-05-06 23:42 | 38.93939 | -77.45618 | 319 ft | 14 kts | 181° |
| 2026-05-06 23:43 | 38.93843 | -77.45618 | 319 ft | 13 kts | 181° |
| 2026-05-06 23:43 | 38.93753 | -77.45620 | 319 ft | 12 kts | 181° |
| 2026-05-06 23:43 | 38.93681 | -77.45578 | 319 ft | 11 kts | 132° |
| 2026-05-06 23:43 | 38.93632 | -77.45506 | 319 ft | 10 kts | 139° |
| 2026-05-06 23:44 | 38.93564 | -77.45506 | 319 ft | 12 kts | 200° |
| 2026-05-06 23:44 | 38.93477 | -77.45548 | 319 ft | 12 kts | 201° |
| 2026-05-06 23:44 | 38.93396 | -77.45588 | 319 ft | 11 kts | 204° |
| 2026-05-06 23:44 | 38.93386 | -77.45674 | 319 ft | 11 kts | 291° |
| 2026-05-06 23:45 | 38.93476 | -77.45978 | 319 ft | 79 kts | 291° |
| 2026-05-06 23:45 | 38.93771 | -77.46994 | 320 ft | 159 kts | 290° |
| 2026-05-06 23:45 | 38.94216 | -77.48494 | 852 ft | 189 kts | 290° |
| 2026-05-06 23:45 | 38.94782 | -77.49978 | 1859 ft | 191 kts | 308° |
| 2026-05-06 23:46 | 38.95718 | -77.51215 | 2659 ft | 201 kts | 314° |
| 2026-05-06 23:46 | 38.96804 | -77.52434 | 3332 ft | 220 kts | 326° |
| 2026-05-06 23:46 | 38.98350 | -77.52912 | 3974 ft | 250 kts | 1° |
| 2026-05-06 23:46 | 39.00033 | -77.52080 | 4707 ft | 275 kts | 34° |
| 2026-05-06 23:47 | 39.01438 | -77.50305 | 5456 ft | 293 kts | 47° |
| 2026-05-06 23:47 | 39.02781 | -77.48250 | 6243 ft | 306 kts | 47° |
| 2026-05-06 23:47 | 39.04186 | -77.46183 | 7224 ft | 310 kts | 45° |
| 2026-05-06 23:47 | 39.05664 | -77.44137 | 8110 ft | 317 kts | 42° |
| 2026-05-06 23:48 | 39.07196 | -77.42102 | 9037 ft | 321 kts | 41° |
| 2026-05-06 23:48 | 39.08769 | -77.40047 | 9934 ft | 326 kts | 41° |
| 2026-05-06 23:48 | 39.10386 | -77.37945 | 10722 ft | 335 kts | 41° |
| 2026-05-06 23:48 | 39.12058 | -77.35770 | 11408 ft | 347 kts | 41° |
| 2026-05-06 23:49 | 39.13657 | -77.33382 | 12011 ft | 365 kts | 52° |
| 2026-05-06 23:49 | 39.14808 | -77.30384 | 12583 ft | 384 kts | 72° |
| 2026-05-06 23:49 | 39.15181 | -77.26953 | 13085 ft | 399 kts | 92° |
| 2026-05-06 23:49 | 39.14793 | -77.23389 | 13610 ft | 410 kts | 104° |
| 2026-05-06 23:50 | 39.14160 | -77.19745 | 14211 ft | 421 kts | 105° |
| 2026-05-06 23:50 | 39.12843 | -77.12263 | 15718 ft | 434 kts | 104° |
| 2026-05-06 23:50 | 39.12210 | -77.08453 | 16500 ft | 438 kts | 103° |
| 2026-05-06 23:51 | 39.11585 | -77.04584 | 16920 ft | 447 kts | 103° |
| 2026-05-06 23:51 | 39.10936 | -77.00684 | 17023 ft | 447 kts | 105° |
| 2026-05-06 23:51 | 39.10132 | -76.96800 | 17024 ft | 445 kts | 109° |
| 2026-05-06 23:51 | 39.09153 | -76.93040 | 17020 ft | 443 kts | 113° |
| 2026-05-06 23:52 | 39.08055 | -76.89304 | 17023 ft | 444 kts | 114° |
| 2026-05-06 23:52 | 39.06929 | -76.85658 | 17018 ft | 444 kts | 114° |
| 2026-05-06 23:52 | 39.05766 | -76.81937 | 17018 ft | 443 kts | 115° |
| 2026-05-06 23:52 | 39.04630 | -76.78283 | 17014 ft | 442 kts | 114° |
| 2026-05-06 23:53 | 39.03500 | -76.74612 | 17013 ft | 444 kts | 114° |
| 2026-05-06 23:53 | 39.02383 | -76.70891 | 17008 ft | 444 kts | 112° |
| 2026-05-06 23:53 | 39.01440 | -76.67078 | 17010 ft | 445 kts | 105° |
| 2026-05-06 23:53 | 39.00909 | -76.63165 | 17009 ft | 447 kts | 96° |
| 2026-05-06 23:54 | 39.00714 | -76.59211 | 17008 ft | 446 kts | 91° |
| 2026-05-06 23:54 | 39.00692 | -76.55223 | 17005 ft | 447 kts | 89° |
| 2026-05-06 23:54 | 39.00753 | -76.51204 | 16998 ft | 447 kts | 88° |
| 2026-05-06 23:54 | 39.00834 | -76.47259 | 17016 ft | 446 kts | 88° |
| 2026-05-06 23:55 | 39.00907 | -76.43278 | 17002 ft | 447 kts | 88° |
| 2026-05-06 23:55 | 39.01059 | -76.39257 | 16992 ft | 448 kts | 84° |
| 2026-05-06 23:55 | 39.01372 | -76.35305 | 17013 ft | 446 kts | 81° |
| 2026-05-06 23:55 | 39.01780 | -76.31346 | 16997 ft | 446 kts | 81° |
| 2026-05-06 23:56 | 39.02225 | -76.27396 | 17002 ft | 446 kts | 81° |
| 2026-05-06 23:56 | 39.02673 | -76.23428 | 16993 ft | 448 kts | 81° |
| 2026-05-06 23:56 | 39.03102 | -76.19498 | 16974 ft | 446 kts | 81° |
| 2026-05-06 23:56 | 39.03520 | -76.15519 | 17001 ft | 447 kts | 81° |
| 2026-05-06 23:57 | 39.03918 | -76.11577 | 16988 ft | 447 kts | 81° |
| 2026-05-06 23:57 | 39.04303 | -76.07668 | 16986 ft | 447 kts | 82° |
| 2026-05-06 23:57 | 39.04650 | -76.03631 | 16994 ft | 447 kts | 84° |
| 2026-05-06 23:57 | 39.04882 | -75.99628 | 16988 ft | 448 kts | 86° |
| 2026-05-06 23:58 | 39.05045 | -75.95637 | 16990 ft | 447 kts | 86° |
| 2026-05-06 23:58 | 39.05183 | -75.91660 | 16983 ft | 448 kts | 86° |
| 2026-05-06 23:58 | 39.05320 | -75.87661 | 16986 ft | 448 kts | 86° |
| 2026-05-06 23:58 | 39.05464 | -75.83691 | 16994 ft | 445 kts | 86° |
| 2026-05-06 23:59 | 39.05617 | -75.79701 | 16991 ft | 447 kts | 86° |
| 2026-05-06 23:59 | 39.05776 | -75.75754 | 16990 ft | 446 kts | 86° |
| 2026-05-06 23:59 | 39.05942 | -75.71764 | 16984 ft | 447 kts | 86° |
| 2026-05-06 23:59 | 39.06110 | -75.67774 | 16986 ft | 446 kts | 86° |
| 2026-05-07 00:00 | 39.06279 | -75.63798 | 16979 ft | 446 kts | 86° |
| 2026-05-07 00:00 | 39.06450 | -75.59798 | 16962 ft | 448 kts | 86° |
| 2026-05-07 00:00 | 39.06620 | -75.55809 | 17004 ft | 448 kts | 85° |
| 2026-05-07 00:00 | 39.06733 | -75.53143 | 16977 ft | 448 kts | 85° |
| 2026-05-07 00:01 | 39.06952 | -75.47870 | 16996 ft | 445 kts | 86° |
| 2026-05-07 00:01 | 39.07117 | -75.43852 | 16975 ft | 447 kts | 86° |
| 2026-05-07 00:01 | 39.07279 | -75.39880 | 16988 ft | 447 kts | 86° |
| 2026-05-07 00:01 | 39.07457 | -75.35908 | 17008 ft | 447 kts | 84° |
| 2026-05-07 00:02 | 39.07879 | -75.31970 | 17004 ft | 444 kts | 76° |
| 2026-05-07 00:02 | 39.08874 | -75.28236 | 17000 ft | 440 kts | 60° |
| 2026-05-07 00:02 | 39.10395 | -75.24811 | 17001 ft | 437 kts | 53° |
| 2026-05-07 00:02 | 39.12054 | -75.21584 | 16993 ft | 433 kts | 51° |
| 2026-05-07 00:03 | 39.13772 | -75.18426 | 16999 ft | 435 kts | 50° |
| 2026-05-07 00:03 | 39.15520 | -75.15263 | 16997 ft | 435 kts | 50° |
| 2026-05-07 00:03 | 39.17277 | -75.12055 | 16992 ft | 433 kts | 50° |
| 2026-05-07 00:03 | 39.18992 | -75.08880 | 16994 ft | 436 kts | 51° |
| 2026-05-07 00:04 | 39.20697 | -75.05679 | 16997 ft | 435 kts | 51° |
| 2026-05-07 00:04 | 39.22402 | -75.02440 | 16988 ft | 436 kts | 52° |
| 2026-05-07 00:04 | 39.24108 | -74.99178 | 16990 ft | 434 kts | 52° |
| 2026-05-07 00:04 | 39.25769 | -74.95985 | 16954 ft | 433 kts | 52° |
| 2026-05-07 00:05 | 39.27463 | -74.92728 | 17001 ft | 437 kts | 52° |
| 2026-05-07 00:05 | 39.29125 | -74.89522 | 17019 ft | 434 kts | 51° |
| 2026-05-07 00:05 | 39.30806 | -74.86282 | 16987 ft | 436 kts | 52° |
| 2026-05-07 00:05 | 39.32484 | -74.83046 | 16979 ft | 433 kts | 52° |
| 2026-05-07 00:06 | 39.34169 | -74.79797 | 17044 ft | 436 kts | 52° |
| 2026-05-07 00:06 | 39.35835 | -74.76578 | 16999 ft | 435 kts | 52° |
| 2026-05-07 00:06 | 39.37521 | -74.73319 | 16974 ft | 432 kts | 52° |
| 2026-05-07 00:06 | 39.39188 | -74.70097 | 17005 ft | 435 kts | 52° |
| 2026-05-07 00:07 | 39.40881 | -74.66821 | 16978 ft | 436 kts | 52° |
| 2026-05-07 00:07 | 39.42554 | -74.63574 | 16999 ft | 434 kts | 52° |
| 2026-05-07 00:07 | 39.44236 | -74.60305 | 17000 ft | 434 kts | 51° |
| 2026-05-07 00:07 | 39.45888 | -74.57091 | 17001 ft | 433 kts | 51° |
| 2026-05-07 00:08 | 39.47592 | -74.53853 | 17004 ft | 435 kts | 51° |
| 2026-05-07 00:08 | 39.49326 | -74.50635 | 17003 ft | 435 kts | 50° |
| 2026-05-07 00:08 | 39.51061 | -74.47450 | 17024 ft | 432 kts | 49° |
| 2026-05-07 00:08 | 39.52800 | -74.44271 | 16983 ft | 433 kts | 50° |
| 2026-05-07 00:09 | 39.54543 | -74.41080 | 17012 ft | 435 kts | 50° |
| 2026-05-07 00:09 | 39.56299 | -74.37854 | 16999 ft | 434 kts | 50° |
| 2026-05-07 00:09 | 39.58036 | -74.34650 | 16997 ft | 436 kts | 51° |
| 2026-05-07 00:09 | 39.59765 | -74.31447 | 16999 ft | 433 kts | 50° |
| 2026-05-07 00:10 | 39.61470 | -74.28280 | 17001 ft | 434 kts | 51° |
| 2026-05-07 00:10 | 39.63195 | -74.25070 | 17021 ft | 433 kts | 51° |
| 2026-05-07 00:10 | 39.64932 | -74.21841 | 17004 ft | 435 kts | 50° |
| 2026-05-07 00:10 | 39.66710 | -74.18697 | 16996 ft | 432 kts | 47° |
| 2026-05-07 00:11 | 39.68631 | -74.15762 | 16993 ft | 428 kts | 41° |
| 2026-05-07 00:11 | 39.70759 | -74.13062 | 16994 ft | 426 kts | 37° |
| 2026-05-07 00:11 | 39.72984 | -74.10534 | 16992 ft | 415 kts | 34° |
| 2026-05-07 00:11 | 39.75153 | -74.08187 | 16840 ft | 401 kts | 33° |
| 2026-05-07 00:12 | 39.77168 | -74.06045 | 16503 ft | 393 kts | 32° |
| 2026-05-07 00:12 | 39.79285 | -74.03796 | 15998 ft | 390 kts | 33° |
| 2026-05-07 00:12 | 39.81371 | -74.01561 | 15430 ft | 390 kts | 33° |
| 2026-05-07 00:12 | 39.83477 | -73.99372 | 14807 ft | 388 kts | 31° |
| 2026-05-07 00:13 | 39.85687 | -73.97425 | 14190 ft | 384 kts | 25° |
| 2026-05-07 00:13 | 39.87994 | -73.95679 | 13578 ft | 382 kts | 23° |
| 2026-05-07 00:13 | 39.90322 | -73.94054 | 12956 ft | 381 kts | 22° |
| 2026-05-07 00:13 | 39.92689 | -73.92449 | 12338 ft | 381 kts | 22° |
| 2026-05-07 00:14 | 39.95031 | -73.90859 | 11743 ft | 380 kts | 22° |
| 2026-05-07 00:14 | 39.97333 | -73.89275 | 11367 ft | 371 kts | 22° |
| 2026-05-07 00:14 | 39.99575 | -73.87704 | 11232 ft | 357 kts | 23° |
| 2026-05-07 00:14 | 40.01678 | -73.86168 | 11032 ft | 347 kts | 25° |
| 2026-05-07 00:15 | 40.03688 | -73.84536 | 10969 ft | 333 kts | 27° |
| 2026-05-07 00:15 | 40.05646 | -73.82885 | 10780 ft | 332 kts | 27° |
| 2026-05-07 00:15 | 40.07422 | -73.81381 | 10554 ft | 327 kts | 27° |
| 2026-05-07 00:15 | 40.09338 | -73.79755 | 10309 ft | 327 kts | 27° |
| 2026-05-07 00:16 | 40.11246 | -73.78135 | 10065 ft | 326 kts | 27° |
| 2026-05-07 00:16 | 40.13131 | -73.76536 | 9975 ft | 314 kts | 28° |
| 2026-05-07 00:16 | 40.14954 | -73.74985 | 9991 ft | 310 kts | 27° |
| 2026-05-07 00:16 | 40.16790 | -73.73425 | 9987 ft | 317 kts | 27° |
| 2026-05-07 00:17 | 40.18621 | -73.71867 | 9927 ft | 313 kts | 27° |
| 2026-05-07 00:17 | 40.20415 | -73.70335 | 9668 ft | 307 kts | 27° |
| 2026-05-07 00:17 | 40.22207 | -73.68810 | 9248 ft | 307 kts | 27° |
| 2026-05-07 00:17 | 40.24003 | -73.67290 | 8854 ft | 306 kts | 27° |
| 2026-05-07 00:18 | 40.25767 | -73.65802 | 8491 ft | 304 kts | 27° |
| 2026-05-07 00:18 | 40.27546 | -73.64310 | 8136 ft | 302 kts | 27° |
| 2026-05-07 00:18 | 40.29290 | -73.62850 | 7865 ft | 296 kts | 27° |
| 2026-05-07 00:18 | 40.31016 | -73.61404 | 7545 ft | 293 kts | 27° |
| 2026-05-07 00:19 | 40.32748 | -73.59963 | 7186 ft | 292 kts | 27° |
| 2026-05-07 00:19 | 40.34452 | -73.58547 | 6804 ft | 291 kts | 27° |
| 2026-05-07 00:19 | 40.36158 | -73.57132 | 6454 ft | 288 kts | 27° |
| 2026-05-07 00:19 | 40.37831 | -73.55756 | 6127 ft | 285 kts | 27° |
| 2026-05-07 00:20 | 40.39540 | -73.54396 | 5792 ft | 281 kts | 22° |
| 2026-05-07 00:20 | 40.41315 | -73.53509 | 5451 ft | 273 kts | 9° |
| 2026-05-07 00:20 | 40.43153 | -73.52921 | 5118 ft | 270 kts | 7° |
| 2026-05-07 00:20 | 40.44990 | -73.52361 | 4713 ft | 270 kts | 7° |
| 2026-05-07 00:21 | 40.46812 | -73.51799 | 4312 ft | 271 kts | 7° |
| 2026-05-07 00:21 | 40.48657 | -73.51235 | 4007 ft | 268 kts | 7° |
| 2026-05-07 00:21 | 40.50451 | -73.50691 | 3976 ft | 266 kts | 7° |
| 2026-05-07 00:21 | 40.52296 | -73.50127 | 3981 ft | 270 kts | 7° |
| 2026-05-07 00:22 | 40.54118 | -73.49571 | 3978 ft | 268 kts | 7° |
| 2026-05-07 00:22 | 40.55946 | -73.49020 | 3976 ft | 270 kts | 7° |
| 2026-05-07 00:22 | 40.57771 | -73.48648 | 3936 ft | 259 kts | 354° |
| 2026-05-07 00:22 | 40.59499 | -73.48766 | 3804 ft | 246 kts | 348° |
| 2026-05-07 00:23 | 40.61192 | -73.48994 | 3628 ft | 238 kts | 347° |
| 2026-05-07 00:23 | 40.62821 | -73.49210 | 3391 ft | 235 kts | 347° |
| 2026-05-07 00:23 | 40.64430 | -73.49416 | 3218 ft | 226 kts | 347° |
| 2026-05-07 00:23 | 40.66001 | -73.49617 | 2972 ft | 230 kts | 347° |
| 2026-05-07 00:24 | 40.67612 | -73.49827 | 2965 ft | 231 kts | 347° |
| 2026-05-07 00:24 | 40.69192 | -73.50030 | 2808 ft | 225 kts | 347° |
| 2026-05-07 00:24 | 40.70729 | -73.50227 | 2565 ft | 222 kts | 347° |
| 2026-05-07 00:24 | 40.72269 | -73.50437 | 2207 ft | 224 kts | 347° |
| 2026-05-07 00:25 | 40.73828 | -73.50666 | 1967 ft | 223 kts | 347° |
| 2026-05-07 00:25 | 40.75358 | -73.50962 | 1962 ft | 221 kts | 338° |
| 2026-05-07 00:25 | 40.75858 | -73.51200 | 1965 ft | 219 kts | 327° |
| 2026-05-07 00:26 | 40.76887 | -73.52387 | 2028 ft | 202 kts | 301° |
| 2026-05-07 00:26 | 40.77409 | -73.54080 | 2038 ft | 197 kts | 287° |
| 2026-05-07 00:26 | 40.77801 | -73.55814 | 2038 ft | 197 kts | 287° |
| 2026-05-07 00:26 | 40.78196 | -73.57531 | 2038 ft | 197 kts | 287° |
| 2026-05-07 00:27 | 40.78600 | -73.59306 | 2032 ft | 200 kts | 285° |
| 2026-05-07 00:27 | 40.78682 | -73.61089 | 2012 ft | 197 kts | 257° |
| 2026-05-07 00:27 | 40.78088 | -73.62641 | 2010 ft | 182 kts | 237° |
| 2026-05-07 00:27 | 40.77384 | -73.63950 | 1971 ft | 168 kts | 236° |
| 2026-05-07 00:28 | 40.76754 | -73.65200 | 1965 ft | 165 kts | 237° |
| 2026-05-07 00:28 | 40.76009 | -73.66386 | 1965 ft | 169 kts | 222° |
| 2026-05-07 00:28 | 40.75031 | -73.67260 | 1972 ft | 169 kts | 214° |
| 2026-05-07 00:28 | 40.74027 | -73.68060 | 1969 ft | 168 kts | 215° |
| 2026-05-07 00:29 | 40.73043 | -73.68845 | 1952 ft | 169 kts | 214° |
| 2026-05-07 00:29 | 40.72026 | -73.69640 | 1740 ft | 163 kts | 213° |
| 2026-05-07 00:30 | 40.69509 | -73.71608 | 1153 ft | 126 kts | 213° |
| 2026-05-07 00:30 | 40.68761 | -73.72183 | 998 ft | 125 kts | 212° |
| 2026-05-07 00:30 | 40.67998 | -73.72762 | 881 ft | 127 kts | 212° |
| 2026-05-07 00:30 | 40.67233 | -73.73370 | 719 ft | 127 kts | 212° |
| 2026-05-07 00:31 | 40.66480 | -73.73956 | 568 ft | 128 kts | 211° |
| 2026-05-07 00:31 | 40.65708 | -73.74559 | 368 ft | 128 kts | 210° |
| 2026-05-07 00:31 | 40.64929 | -73.75168 | 178 ft | 129 kts | 210° |
| 2026-05-07 00:31 | 40.64155 | -73.75774 | 25 ft | 130 kts | 210° |
| 2026-05-07 00:32 | 40.63543 | -73.76252 | 21 ft | 67 kts | 210° |
| 2026-05-07 00:32 | 40.63308 | -73.76457 | 21 ft | 23 kts | 234° |
| 2026-05-07 00:32 | 40.63239 | -73.76643 | 21 ft | 16 kts | 262° |
| 2026-05-07 00:32 | 40.63266 | -73.76780 | 21 ft | 15 kts | 299° |
| 2026-05-07 00:33 | 40.63320 | -73.76898 | 21 ft | 14 kts | 301° |
| 2026-05-07 00:33 | 40.63381 | -73.77032 | 21 ft | 19 kts | 300° |
| 2026-05-07 00:33 | 40.63451 | -73.77188 | 21 ft | 19 kts | 300° |
| 2026-05-07 00:33 | 40.63519 | -73.77340 | 21 ft | 18 kts | 300° |
| 2026-05-07 00:34 | 40.63586 | -73.77486 | 21 ft | 18 kts | 300° |
| 2026-05-07 00:34 | 40.63653 | -73.77620 | 21 ft | 14 kts | 307° |
| 2026-05-07 00:34 | 40.63714 | -73.77662 | 21 ft | 9 kts | 352° |
| 2026-05-07 00:34 | 40.63781 | -73.77691 | 21 ft | 9 kts | 327° |
| 2026-05-07 00:35 | 40.63836 | -73.77741 | 21 ft | 9 kts | 324° |
| 2026-05-07 00:35 | 40.63887 | -73.77788 | 21 ft | 8 kts | 318° |
| 2026-05-07 00:35 | 40.63900 | -73.77857 | 21 ft | 7 kts | 255° |
| 2026-05-07 00:35 | 40.63896 | -73.77921 | 21 ft | 6 kts | 281° |
| 2026-05-07 00:36 | 40.63905 | -73.77976 | 21 ft | 3 kts | 282° |
| 2026-05-07 00:36 | 40.63906 | -73.78004 | 21 ft | 2 kts | 265° |
| 2026-05-07 00:36 | 40.63905 | -73.78023 | 21 ft | 1 kts | 264° |
| 2026-05-07 00:36 | 40.63903 | -73.78041 | 21 ft | 2 kts | 264° |
| 2026-05-07 00:37 | 40.63903 | -73.78043 | 21 ft | 0 kts | 264° |